createdAt,value
2023-03-23T15:59:48.535Z,5.32
2023-03-23T16:02:24.361Z,6.28
2023-03-23T16:04:52.211Z,6.13
2023-03-23T16:07:23.518Z,6.65
2023-03-23T16:09:51.172Z,5.57
2023-03-23T16:12:18.548Z,6.32
2023-03-23T16:14:45.559Z,7.07
2023-03-23T16:17:20.635Z,5.60
2023-03-23T16:19:48.096Z,6.80
2023-03-23T16:22:16.620Z,6.45
2023-03-23T16:24:44.319Z,7.72
2023-03-23T16:27:14.130Z,7.85
2023-03-23T16:32:14.392Z,7.63
2023-03-23T16:34:41.348Z,7.47
2023-03-23T16:37:11.975Z,8.00
2023-03-23T16:39:38.933Z,7.63
2023-03-23T16:42:06.195Z,7.00
2023-03-23T16:44:33.918Z,7.78
2023-03-23T16:47:01.389Z,7.22
2023-03-23T16:49:28.442Z,7.28
2023-03-23T16:51:55.665Z,5.70
2023-03-23T16:54:23.427Z,6.10
2023-03-23T16:56:50.771Z,6.75
2023-03-23T16:59:17.951Z,5.35
2023-03-23T17:01:45.277Z,6.38
2023-03-23T17:04:12.434Z,6.32
2023-03-23T17:06:39.508Z,7.05
2023-03-23T17:09:07.946Z,6.80
2023-03-23T17:11:35.354Z,6.32
2023-03-23T17:14:02.674Z,6.85
2023-03-23T17:16:29.666Z,5.43
2023-03-23T17:18:56.832Z,7.13
2023-03-23T17:21:25.851Z,4.78
2023-03-23T17:23:53.845Z,4.47
2023-03-23T17:26:20.916Z,4.82
2023-03-23T17:28:48.030Z,4.72
2023-03-23T17:31:15.706Z,4.00
2023-03-23T17:33:42.823Z,4.70
2023-03-23T17:36:10.194Z,5.30
2023-03-23T17:38:37.159Z,4.80
2023-03-23T17:41:06.441Z,4.68
2023-03-23T17:43:35.077Z,4.43
2023-03-23T17:46:02.352Z,5.55
2023-03-23T17:48:29.382Z,4.25
2023-03-23T17:51:02.600Z,4.10
2023-03-23T17:53:32.603Z,3.90
2023-03-23T17:55:59.842Z,3.10
2023-03-23T17:58:27.490Z,4.90
2023-03-23T18:00:56.551Z,4.65
2023-03-23T18:03:25.596Z,5.35
2023-03-23T18:05:59.916Z,3.80
2023-03-23T18:08:28.525Z,3.95
2023-03-23T18:10:58.629Z,3.15
2023-03-23T18:13:27.620Z,3.70
2023-03-23T18:15:56.514Z,3.03
2023-03-23T18:18:24.997Z,2.45
2023-03-23T18:21:02.436Z,3.00
2023-03-23T18:23:33.745Z,4.82
2023-03-23T18:26:00.882Z,3.40
2023-03-23T18:28:28.345Z,3.05
2023-03-23T18:31:02.945Z,4.40
2023-03-23T18:33:29.964Z,3.45
2023-03-23T18:36:00.324Z,3.15
2023-03-23T18:38:29.087Z,4.03
2023-03-23T18:40:56.054Z,3.67
2023-03-23T18:43:23.651Z,4.00
2023-03-23T18:45:56.871Z,3.13
2023-03-23T18:48:24.680Z,3.45
2023-03-23T18:50:55.746Z,2.65
2023-03-23T18:53:23.290Z,2.90
2023-03-23T18:55:51.337Z,3.20
2023-03-23T18:58:20.975Z,3.50
2023-03-23T19:00:50.063Z,3.20
2023-03-23T19:03:18.863Z,3.40
2023-03-23T19:05:47.060Z,3.28
2023-03-23T19:08:14.201Z,3.33
2023-03-23T19:10:43.260Z,3.65
2023-03-23T19:13:11.718Z,3.90
2023-03-23T19:15:40.482Z,3.67
2023-03-23T19:18:08.571Z,3.35
2023-03-23T19:23:07.225Z,3.53
2023-03-23T19:25:34.191Z,4.10
2023-03-23T19:30:32.633Z,3.45
2023-03-23T19:32:59.708Z,3.15
2023-03-23T19:35:27.139Z,3.40
2023-03-23T19:37:54.122Z,3.40
2023-03-23T19:40:36.653Z,3.40
2023-03-23T19:43:08.577Z,2.78
2023-03-23T19:45:36.356Z,3.38
2023-03-23T19:48:03.361Z,3.72
2023-03-23T19:50:31.710Z,3.40
2023-03-23T19:53:00.548Z,3.22
2023-03-23T19:55:27.718Z,3.83
2023-03-23T19:57:55.114Z,5.63
2023-03-23T20:00:24.416Z,3.63
2023-03-23T20:02:53.239Z,4.40
2023-03-23T20:05:20.647Z,3.95
2023-03-23T20:07:51.650Z,3.65
2023-03-23T20:10:19.328Z,4.28
2023-03-23T20:12:46.704Z,4.03
2023-03-23T20:15:14.121Z,4.13
2023-03-23T20:17:41.300Z,3.60
2023-03-23T20:20:10.591Z,4.10
2023-03-23T20:22:38.245Z,3.75
2023-03-23T20:25:07.525Z,4.18
2023-03-23T20:27:37.857Z,4.80
2023-03-23T20:30:07.502Z,4.50
2023-03-23T20:32:35.090Z,5.03
2023-03-23T20:35:09.373Z,5.65
2023-03-23T20:37:38.386Z,5.38
2023-03-23T20:40:13.231Z,5.35
2023-03-23T20:42:44.105Z,4.88
2023-03-23T20:45:13.102Z,5.20
2023-03-23T20:47:41.123Z,4.28
2023-03-23T20:50:10.779Z,4.78
2023-03-23T20:52:37.879Z,4.45
2023-03-23T20:55:05.673Z,4.55
2023-03-23T20:57:34.122Z,4.95
2023-03-23T21:00:02.396Z,4.47
2023-03-23T21:02:30.305Z,4.75
2023-03-23T21:04:58.226Z,5.03
2023-03-23T21:07:27.742Z,4.60
2023-03-23T21:09:54.662Z,4.80
2023-03-23T21:12:22.537Z,5.07
2023-03-23T21:14:49.631Z,5.43
2023-03-23T21:17:16.675Z,5.25
2023-03-23T21:19:44.025Z,5.20
2023-03-23T21:22:14.565Z,5.07
2023-03-23T21:24:41.637Z,4.97
2023-03-23T21:27:08.741Z,5.10
2023-03-23T21:29:35.731Z,4.85
2023-03-23T21:32:08.148Z,6.10
2023-03-23T21:34:37.256Z,6.22
2023-03-23T21:37:04.510Z,5.25
2023-03-23T21:39:31.789Z,5.83
2023-03-23T21:41:59.593Z,5.18
2023-03-23T21:44:26.717Z,5.78
2023-03-23T21:46:54.339Z,5.80
2023-03-23T21:49:21.919Z,5.85
2023-03-23T21:51:50.042Z,6.72
2023-03-23T21:54:17.270Z,6.07
2023-03-23T21:56:44.254Z,5.25
2023-03-23T21:59:11.465Z,7.10
2023-03-23T22:01:40.742Z,6.85
2023-03-23T22:04:08.645Z,10.48
2023-03-23T22:06:35.862Z,9.30
2023-03-23T22:09:05.472Z,9.15
2023-03-23T22:11:33.189Z,8.07
2023-03-23T22:14:00.483Z,8.13
2023-03-23T22:16:27.884Z,8.38
2023-03-23T22:18:58.090Z,7.32
2023-03-23T22:21:30.936Z,6.68
2023-03-23T22:24:00.515Z,8.38
2023-03-23T22:26:28.946Z,7.07
2023-03-23T22:28:57.214Z,8.23
2023-03-23T22:31:28.632Z,6.93
2023-03-23T22:33:57.545Z,7.65
2023-03-23T22:36:26.746Z,7.47
2023-03-23T22:38:55.590Z,7.95
2023-03-23T22:41:26.409Z,9.90
2023-03-23T22:43:54.010Z,8.85
2023-03-23T22:46:21.923Z,9.57
2023-03-23T22:48:49.100Z,12.13
2023-03-23T22:51:18.276Z,13.02
2023-03-23T22:53:47.203Z,12.13
2023-03-23T22:56:14.772Z,12.02
2023-03-23T22:58:41.841Z,10.73
2023-03-23T23:01:16.784Z,10.45
2023-03-23T23:03:44.419Z,11.00
2023-03-23T23:06:13.795Z,8.85
2023-03-23T23:08:41.571Z,9.90
2023-03-23T23:11:12.131Z,10.20
2023-03-23T23:13:40.984Z,10.10
2023-03-23T23:16:10.497Z,8.85
2023-03-23T23:18:40.199Z,9.23
2023-03-23T23:21:13.220Z,9.07
2023-03-23T23:23:40.920Z,9.00
2023-03-23T23:26:09.350Z,8.95
2023-03-23T23:28:36.870Z,9.18
2023-03-23T23:31:06.377Z,8.85
2023-03-23T23:33:33.612Z,9.48
2023-03-23T23:36:02.359Z,9.23
2023-03-23T23:38:29.437Z,9.35
2023-03-23T23:40:56.458Z,9.43
2023-03-23T23:43:23.557Z,9.13
2023-03-23T23:45:50.604Z,8.93
2023-03-23T23:48:18.401Z,9.70
2023-03-23T23:50:45.677Z,8.38
2023-03-23T23:53:13.140Z,9.48
2023-03-23T23:55:40.469Z,10.13
2023-03-23T23:58:07.613Z,9.43
